createdAt,value
2019-02-09T00:01:09.437Z,99088.55
2019-02-09T00:03:37.425Z,99092.84
2019-02-09T00:06:05.798Z,99094.14
2019-02-09T00:08:33.886Z,99106.86
2019-02-09T00:11:01.861Z,99091.02
2019-02-09T00:13:29.850Z,99082.03
2019-02-09T00:15:57.984Z,99083.70
2019-02-09T00:18:26.005Z,99084.70
2019-02-09T00:20:53.998Z,99084.11
2019-02-09T00:23:22.022Z,99074.66
2019-02-09T00:25:49.996Z,98943.27
2019-02-09T00:28:18.013Z,99063.20
2019-02-09T00:30:46.090Z,99063.59
2019-02-09T00:33:14.144Z,99051.91
2019-02-09T00:35:42.095Z,99052.71
2019-02-09T00:38:10.146Z,99044.73
2019-02-09T00:40:38.138Z,99040.65
2019-02-09T00:43:06.154Z,99042.73
2019-02-09T00:45:34.221Z,99034.22
2019-02-09T00:48:02.266Z,99030.38
2019-02-09T00:50:30.297Z,99029.67
2019-02-09T00:52:58.392Z,99019.64
2019-02-09T00:55:26.471Z,99027.95
2019-02-09T00:57:54.503Z,99020.78
2019-02-09T01:00:23.867Z,99013.59
2019-02-09T01:02:51.929Z,99013.84
2019-02-09T01:05:22.142Z,99014.12
2019-02-09T01:07:50.144Z,99007.28
2019-02-09T01:10:18.211Z,99008.13
2019-02-09T01:12:46.244Z,98997.07
2019-02-09T01:15:15.410Z,99007.52
2019-02-09T01:17:43.440Z,99000.95
2019-02-09T01:20:16.892Z,99010.52
2019-02-09T01:22:44.895Z,98996.55
2019-02-09T01:25:12.928Z,98992.36
2019-02-09T01:27:40.902Z,98985.66
2019-02-09T01:30:11.776Z,98993.36
2019-02-09T01:32:39.839Z,98980.25
2019-02-09T01:35:08.317Z,98988.04
2019-02-09T01:37:37.922Z,98993.75
2019-02-09T01:40:27.413Z,98987.18
2019-02-09T01:42:55.421Z,98974.45
2019-02-09T01:45:28.159Z,98963.15
2019-02-09T01:47:56.154Z,98954.64
2019-02-09T01:50:24.356Z,98965.56
2019-02-09T01:52:52.347Z,98960.30
2019-02-09T01:55:21.134Z,98960.82
2019-02-09T01:57:49.103Z,98952.37
2019-02-09T02:00:19.247Z,98713.61
2019-02-09T02:02:47.245Z,98948.23
2019-02-09T02:05:15.578Z,98952.45
2019-02-09T02:07:43.599Z,98948.80
2019-02-09T02:10:32.511Z,98944.20
2019-02-09T02:13:00.778Z,98947.57
2019-02-09T02:15:28.975Z,98941.72
2019-02-09T02:17:57.124Z,98954.50
2019-02-09T02:20:26.452Z,98938.68
2019-02-09T02:22:54.498Z,98941.11
2019-02-09T02:25:23.680Z,98943.72
2019-02-09T02:27:52.274Z,98945.76
2019-02-09T02:30:25.431Z,98960.05
2019-02-09T02:32:53.450Z,98955.36
2019-02-09T02:35:21.471Z,98955.30
2019-02-09T02:37:49.585Z,98952.88
2019-02-09T02:40:18.536Z,98948.51
2019-02-09T02:42:46.618Z,98943.39
2019-02-09T02:45:15.573Z,98929.28
2019-02-09T02:47:43.622Z,98934.73
2019-02-09T02:50:16.777Z,98933.13
2019-02-09T02:52:44.863Z,98929.23
2019-02-09T02:55:15.163Z,98924.23
2019-02-09T02:57:43.277Z,98911.94
2019-02-09T03:00:17.254Z,98900.23
2019-02-09T03:02:45.257Z,98897.60
2019-02-09T03:05:15.279Z,98895.55
2019-02-09T03:07:43.381Z,98895.55
2019-02-09T03:10:11.554Z,98901.16
2019-02-09T03:12:39.570Z,98899.06
2019-02-09T03:15:10.482Z,98903.32
2019-02-09T03:17:38.510Z,98909.31
2019-02-09T03:20:07.830Z,98917.53
2019-02-09T03:22:35.945Z,98915.02
2019-02-09T03:25:04.179Z,98901.47
2019-02-09T03:27:32.360Z,98912.48
2019-02-09T03:30:00.554Z,98908.97
2019-02-09T03:32:28.623Z,98895.19
2019-02-09T03:34:56.690Z,98905.64
2019-02-09T03:37:24.887Z,98912.02
2019-02-09T03:39:52.950Z,98894.20
2019-02-09T03:42:21.115Z,98902.09
2019-02-09T03:44:49.190Z,98905.69
2019-02-09T03:47:17.265Z,98907.15
2019-02-09T03:49:45.270Z,98913.03
2019-02-09T03:52:13.335Z,98913.11
2019-02-09T03:54:41.353Z,98911.08
2019-02-09T03:57:09.404Z,98914.54
2019-02-09T03:59:37.451Z,98913.86
2019-02-09T04:02:05.536Z,98903.91
2019-02-09T04:04:33.617Z,98914.44
2019-02-09T04:07:01.672Z,98903.97
2019-02-09T04:09:29.693Z,98906.23
2019-02-09T04:11:57.775Z,98906.10
2019-02-09T04:14:25.783Z,98904.02
2019-02-09T04:16:53.822Z,98893.00
2019-02-09T04:19:21.800Z,98887.56
2019-02-09T04:21:49.874Z,98896.91
2019-02-09T04:24:17.820Z,98882.59
2019-02-09T04:26:45.963Z,98883.41
2019-02-09T04:29:13.950Z,98870.95
2019-02-09T04:31:42.472Z,98872.92
2019-02-09T04:34:11.024Z,98883.97
2019-02-09T04:36:39.068Z,98870.81
2019-02-09T04:39:08.057Z,98880.63
2019-02-09T04:41:36.164Z,98897.89
2019-02-09T04:44:04.209Z,98900.32
2019-02-09T04:46:32.228Z,98901.41
2019-02-09T04:49:00.246Z,98885.69
2019-02-09T04:51:28.315Z,98895.53
2019-02-09T04:53:56.457Z,98898.83
2019-02-09T04:56:24.524Z,98897.55
2019-02-09T04:58:52.535Z,98900.84
2019-02-09T05:01:20.559Z,98903.49
2019-02-09T05:03:49.069Z,98901.06
2019-02-09T05:06:17.113Z,98907.70
2019-02-09T05:08:45.593Z,98903.67
2019-02-09T05:11:13.641Z,98906.67
2019-02-09T05:13:41.715Z,98898.83
2019-02-09T05:16:09.759Z,98898.41
2019-02-09T05:18:37.856Z,98906.84
2019-02-09T05:21:05.853Z,98897.34
2019-02-09T05:23:33.865Z,98901.36
2019-02-09T05:26:01.890Z,98901.31
2019-02-09T05:28:29.862Z,98904.30
2019-02-09T05:30:57.886Z,98900.03
2019-02-09T05:33:25.880Z,98899.30
2019-02-09T05:35:53.922Z,98906.38
2019-02-09T05:38:21.944Z,98908.64
2019-02-09T05:40:50.024Z,98905.70
2019-02-09T05:43:17.997Z,98907.27
2019-02-09T05:45:46.007Z,98902.94
2019-02-09T05:48:14.014Z,98904.66
2019-02-09T05:50:42.031Z,98900.97
2019-02-09T05:53:10.130Z,98893.16
2019-02-09T05:55:38.179Z,98899.38
2019-02-09T05:58:06.161Z,98910.00
2019-02-09T06:00:37.406Z,98912.14
2019-02-09T06:03:05.441Z,98913.86
2019-02-09T06:05:33.470Z,98917.80
2019-02-09T06:08:01.572Z,98921.27
2019-02-09T06:10:29.537Z,98930.77
2019-02-09T06:12:57.563Z,98928.77
2019-02-09T06:15:25.597Z,98938.19
2019-02-09T06:17:53.630Z,98939.86
2019-02-09T06:20:23.309Z,98947.00
2019-02-09T06:22:51.335Z,98959.66
2019-02-09T06:25:19.586Z,98951.73
2019-02-09T06:27:47.637Z,98960.47
2019-02-09T06:30:18.567Z,98961.66
2019-02-09T06:32:47.203Z,98975.74
2019-02-09T06:35:15.212Z,98968.67
2019-02-09T06:37:43.375Z,98969.33
2019-02-09T06:40:12.685Z,98968.94
2019-02-09T06:42:40.816Z,98990.86
2019-02-09T06:45:11.609Z,98987.37
2019-02-09T06:47:39.724Z,98990.55
2019-02-09T06:50:09.802Z,98999.03
2019-02-09T06:52:38.091Z,99003.13
2019-02-09T06:55:07.170Z,99001.89
2019-02-09T06:57:35.171Z,98998.84
2019-02-09T07:00:03.284Z,99001.38
2019-02-09T07:02:31.352Z,99010.06
2019-02-09T07:04:59.358Z,99011.83
2019-02-09T07:07:27.463Z,99015.25
2019-02-09T07:09:55.542Z,99015.25
2019-02-09T07:12:23.618Z,99019.59
2019-02-09T07:14:51.656Z,99031.24
2019-02-09T07:17:19.677Z,99029.11
2019-02-09T07:19:47.849Z,99025.71
2019-02-09T07:22:15.951Z,99024.39
2019-02-09T07:24:44.357Z,99026.73
2019-02-09T07:27:12.449Z,99050.48
2019-02-09T07:29:40.593Z,99040.89
2019-02-09T07:32:08.675Z,99050.00
2019-02-09T07:34:36.691Z,99054.39
2019-02-09T07:37:04.717Z,99057.68
2019-02-09T07:39:32.743Z,99052.49
2019-02-09T07:42:00.851Z,99070.16
2019-02-09T07:44:28.863Z,99060.50
2019-02-09T07:46:56.965Z,99056.47
2019-02-09T07:49:25.572Z,99052.19
2019-02-09T07:51:53.715Z,99049.61
2019-02-09T07:54:22.231Z,99051.39
2019-02-09T07:56:50.245Z,99056.97
2019-02-09T07:59:18.297Z,99056.73
2019-02-09T08:01:46.345Z,99072.41
2019-02-09T08:04:14.378Z,99062.38
2019-02-09T08:06:42.563Z,99063.78
2019-02-09T08:09:12.488Z,99055.06
2019-02-09T08:11:40.741Z,99059.74
2019-02-09T08:14:08.776Z,99053.06
2019-02-09T08:16:36.792Z,99058.41
2019-02-09T08:19:05.134Z,99068.25
2019-02-09T08:21:33.263Z,99070.44
2019-02-09T08:24:01.993Z,99077.59
2019-02-09T08:26:30.237Z,99074.66
2019-02-09T08:28:58.398Z,99095.63
2019-02-09T08:31:27.511Z,99096.95
2019-02-09T08:33:55.545Z,99111.92
2019-02-09T08:36:23.651Z,99108.77
2019-02-09T08:38:51.753Z,99112.23
2019-02-09T08:41:20.186Z,99106.12
2019-02-09T08:43:48.412Z,99108.55
2019-02-09T08:46:16.511Z,99114.92
2019-02-09T08:48:44.541Z,99117.99
2019-02-09T08:51:14.277Z,99118.28
2019-02-09T08:53:42.327Z,99116.48
2019-02-09T08:56:10.422Z,99119.81
2019-02-09T08:58:38.456Z,99129.19
2019-02-09T09:01:06.702Z,99136.61
2019-02-09T09:03:34.684Z,99139.72
2019-02-09T09:06:03.119Z,99133.56
2019-02-09T09:08:31.509Z,99123.91
2019-02-09T09:11:01.246Z,99128.70
2019-02-09T09:13:29.626Z,99131.39
2019-02-09T09:15:59.304Z,99139.25
2019-02-09T09:18:27.550Z,99139.69
2019-02-09T09:20:58.077Z,99143.90
2019-02-09T09:23:26.079Z,99152.89
2019-02-09T09:25:54.827Z,99149.80
2019-02-09T09:28:23.112Z,99141.00
2019-02-09T09:30:51.424Z,99151.85
2019-02-09T09:33:19.498Z,99151.60
2019-02-09T09:35:47.563Z,99175.48
2019-02-09T09:38:15.589Z,99165.78
2019-02-09T09:40:43.651Z,99153.80
2019-02-09T09:43:11.883Z,99162.31
2019-02-09T09:45:40.494Z,99172.30
2019-02-09T09:48:10.751Z,99154.65
2019-02-09T09:50:38.827Z,99172.09
2019-02-09T09:53:07.000Z,99158.70
2019-02-09T09:55:35.217Z,99152.80
2019-02-09T09:58:03.314Z,99160.59
2019-02-09T10:00:31.385Z,99159.51
2019-02-09T10:02:59.456Z,99163.58
2019-02-09T10:05:27.660Z,99163.05
2019-02-09T10:07:55.784Z,99162.89
2019-02-09T10:10:24.340Z,99176.44
2019-02-09T10:12:52.469Z,99155.99
2019-02-09T10:15:22.310Z,99180.19
2019-02-09T10:17:50.420Z,99181.36
2019-02-09T10:20:20.533Z,99179.83
2019-02-09T10:22:48.628Z,99164.69
2019-02-09T10:25:16.858Z,99169.25
2019-02-09T10:27:45.130Z,99163.53
2019-02-09T10:30:15.537Z,99150.06
2019-02-09T10:32:44.662Z,99159.45
2019-02-09T10:35:13.781Z,99171.55
2019-02-09T10:37:41.888Z,99166.00
2019-02-09T10:40:17.587Z,99183.89
2019-02-09T10:42:45.919Z,99167.98
2019-02-09T10:45:17.175Z,99164.89
2019-02-09T10:47:45.336Z,99157.53
2019-02-09T10:50:20.773Z,99147.13
2019-02-09T10:52:49.755Z,99162.80
2019-02-09T10:55:18.118Z,99145.48
2019-02-09T10:57:46.255Z,99143.70
2019-02-09T11:00:17.953Z,99148.39
2019-02-09T11:02:52.102Z,99143.98
2019-02-09T11:05:16.455Z,99154.27
2019-02-09T11:07:44.476Z,99187.25
2019-02-09T11:10:15.145Z,99156.30
2019-02-09T11:12:43.290Z,99151.77
2019-02-09T11:15:13.350Z,99131.75
2019-02-09T11:17:41.451Z,99155.06
2019-02-09T11:20:11.636Z,99150.70
2019-02-09T11:22:40.071Z,99153.63
2019-02-09T11:25:08.999Z,99154.81
2019-02-09T11:27:37.102Z,99147.80
2019-02-09T11:30:06.864Z,99158.46
2019-02-09T11:32:34.970Z,99155.63
2019-02-09T11:35:03.464Z,99169.50
2019-02-09T11:37:31.662Z,99152.05
2019-02-09T11:39:59.985Z,99163.93
2019-02-09T11:42:28.287Z,99154.90
2019-02-09T11:44:56.796Z,99153.66
2019-02-09T11:47:25.061Z,99158.93
2019-02-09T11:49:53.253Z,99171.88
2019-02-09T11:52:22.282Z,99163.77
2019-02-09T11:54:50.420Z,99152.23
2019-02-09T11:57:18.465Z,99156.25
2019-02-09T11:59:46.794Z,99179.38
2019-02-09T12:02:14.991Z,99141.55
2019-02-09T12:04:43.095Z,99169.94
2019-02-09T12:07:12.200Z,99150.91
2019-02-09T12:09:40.566Z,99140.06
2019-02-09T12:12:08.683Z,99142.58
2019-02-09T12:14:36.754Z,99129.69
2019-02-09T12:17:04.990Z,99140.14
2019-02-09T12:19:33.001Z,99149.25
2019-02-09T12:22:03.269Z,99167.75
2019-02-09T12:24:31.503Z,99149.82
2019-02-09T12:26:59.645Z,99151.13
2019-02-09T12:29:27.762Z,99156.57
2019-02-09T12:31:56.144Z,99160.90
2019-02-09T12:34:24.183Z,99168.14
2019-02-09T12:36:52.272Z,99151.39
2019-02-09T12:39:20.427Z,99152.38
2019-02-09T12:41:48.474Z,99143.56
2019-02-09T12:44:16.470Z,99156.79
2019-02-09T12:46:44.681Z,99171.02
2019-02-09T12:49:12.822Z,99160.75
2019-02-09T12:51:41.340Z,99163.23
2019-02-09T12:54:09.478Z,99163.42
2019-02-09T12:56:37.565Z,99168.37
2019-02-09T12:59:05.825Z,99164.42
2019-02-09T13:01:33.909Z,99160.88
2019-02-09T13:04:02.244Z,99168.17
2019-02-09T13:06:30.486Z,99158.98
2019-02-09T13:08:58.525Z,99037.62
2019-02-09T13:11:27.165Z,99159.39
2019-02-09T13:13:55.679Z,99161.20
2019-02-09T13:16:23.939Z,99180.83
2019-02-09T13:18:52.095Z,99177.39
2019-02-09T13:21:20.149Z,99166.02
2019-02-09T13:23:48.347Z,99165.70
2019-02-09T13:26:16.472Z,99174.52
2019-02-09T13:28:44.658Z,99166.72
2019-02-09T13:31:12.720Z,99180.56
2019-02-09T13:33:40.856Z,99165.86
2019-02-09T13:36:09.140Z,99185.09
2019-02-09T13:38:37.281Z,99159.56
2019-02-09T13:41:05.440Z,99176.61
2019-02-09T13:43:34.033Z,99174.91
2019-02-09T13:46:02.133Z,99183.38
2019-02-09T13:48:30.387Z,99163.78
2019-02-09T13:50:58.491Z,99161.73
2019-02-09T13:53:26.649Z,99144.04
2019-02-09T13:55:54.838Z,99157.41
2019-02-09T13:58:23.039Z,99158.92
2019-02-09T14:00:51.223Z,99170.00
2019-02-09T14:03:19.386Z,99161.19
2019-02-09T14:05:47.832Z,99175.00
2019-02-09T14:08:15.940Z,99149.70
2019-02-09T14:10:44.044Z,99166.94
2019-02-09T14:13:14.513Z,99162.11
2019-02-09T14:15:41.971Z,99157.79
2019-02-09T14:18:10.656Z,99146.87
2019-02-09T14:20:38.936Z,99167.64
2019-02-09T14:23:07.341Z,99165.78
2019-02-09T14:25:35.717Z,99200.22
2019-02-09T14:28:03.889Z,99206.80
2019-02-09T14:30:33.181Z,99215.12
2019-02-09T14:33:02.791Z,99210.03
2019-02-09T14:35:31.055Z,99205.58
2019-02-09T14:37:59.295Z,99226.70
2019-02-09T14:40:29.653Z,99222.38
2019-02-09T14:42:57.960Z,99257.57
2019-02-09T14:45:28.482Z,99245.73
2019-02-09T14:47:56.530Z,99268.00
2019-02-09T14:50:24.796Z,99263.84
2019-02-09T14:52:53.183Z,99279.06
2019-02-09T14:55:26.660Z,99262.89
2019-02-09T14:57:55.182Z,99264.56
2019-02-09T15:00:25.506Z,99269.98
2019-02-09T15:02:54.136Z,99279.27
2019-02-09T15:05:22.474Z,99264.27
2019-02-09T15:07:50.760Z,99281.08
2019-02-09T15:10:19.499Z,99279.08
2019-02-09T15:12:48.494Z,99281.60
2019-02-09T15:15:23.090Z,99272.27
2019-02-09T15:17:51.484Z,99281.41
2019-02-09T15:20:22.407Z,99286.19
2019-02-09T15:22:50.829Z,99276.41
2019-02-09T15:25:19.088Z,99284.27
2019-02-09T15:27:47.370Z,99269.47
2019-02-09T15:30:36.388Z,99264.94
2019-02-09T15:33:04.759Z,99283.08
2019-02-09T15:35:33.525Z,99284.13
2019-02-09T15:38:02.275Z,99271.19
2019-02-09T15:40:31.254Z,99273.41
2019-02-09T15:42:59.501Z,99278.41
2019-02-09T15:45:28.097Z,99285.98
2019-02-09T15:47:56.728Z,99288.46
2019-02-09T15:50:24.895Z,99282.31
2019-02-09T15:52:53.249Z,99279.59
2019-02-09T15:55:21.625Z,99284.36
2019-02-09T15:57:50.330Z,99290.16
2019-02-09T16:00:23.801Z,99293.20
2019-02-09T16:02:53.052Z,99289.84
2019-02-09T16:05:21.253Z,99286.31
2019-02-09T16:07:49.789Z,99288.03
2019-02-09T16:10:19.148Z,99298.34
2019-02-09T16:12:47.420Z,99305.69
2019-02-09T16:15:21.015Z,99320.50
2019-02-09T16:17:49.140Z,99327.16
2019-02-09T16:20:18.918Z,99343.38
2019-02-09T16:22:47.417Z,99357.50
2019-02-09T16:25:17.196Z,99350.06
2019-02-09T16:27:45.693Z,99364.96
2019-02-09T16:30:18.947Z,99352.27
2019-02-09T16:32:47.135Z,99365.95
2019-02-09T16:35:16.538Z,99377.26
2019-02-09T16:37:45.802Z,99356.77
2019-02-09T16:40:34.560Z,99371.75
2019-02-09T16:43:03.393Z,99380.52
2019-02-09T16:45:33.615Z,99378.72
2019-02-09T16:48:01.980Z,99378.20
2019-02-09T16:50:30.283Z,99395.29
2019-02-09T16:52:59.029Z,99379.61
2019-02-09T16:55:27.581Z,99393.70
2019-02-09T16:57:56.205Z,99400.03
2019-02-09T17:00:30.048Z,99398.06
2019-02-09T17:02:58.470Z,99409.74
2019-02-09T17:05:26.977Z,99412.00
2019-02-09T17:07:56.461Z,99428.26
2019-02-09T17:10:25.479Z,99432.53
2019-02-09T17:12:54.322Z,99434.73
2019-02-09T17:15:25.082Z,99424.18
2019-02-09T17:17:53.704Z,99431.46
2019-02-09T17:20:22.022Z,99431.93
2019-02-09T17:22:51.810Z,99433.30
2019-02-09T17:25:20.282Z,99447.42
2019-02-09T17:27:49.192Z,99440.77
2019-02-09T17:30:22.927Z,99438.30
2019-02-09T17:32:51.426Z,99435.06
2019-02-09T17:35:20.502Z,99430.64
2019-02-09T17:37:49.138Z,99430.64
2019-02-09T17:40:19.632Z,99444.41
2019-02-09T17:42:53.269Z,99444.88
2019-02-09T17:45:35.143Z,99441.20
2019-02-09T17:48:03.513Z,99459.20
2019-02-09T17:50:32.405Z,99448.20
2019-02-09T17:53:00.825Z,99456.27
2019-02-09T17:55:29.103Z,99464.16
2019-02-09T17:57:57.630Z,99454.59
2019-02-09T18:00:32.634Z,99474.19
2019-02-09T18:03:01.045Z,99467.19
2019-02-09T18:05:29.785Z,99470.67
2019-02-09T18:07:58.394Z,99450.17
2019-02-09T18:10:26.661Z,99472.86
2019-02-09T18:12:54.908Z,99476.54
2019-02-09T18:15:23.337Z,99471.25
2019-02-09T18:17:51.979Z,99484.95
2019-02-09T18:20:20.890Z,99480.33
2019-02-09T18:22:49.698Z,99482.17
2019-02-09T18:25:19.086Z,99475.05
2019-02-09T18:27:47.636Z,99467.92
2019-02-09T18:30:18.799Z,99474.02
2019-02-09T18:32:47.588Z,99466.48
2019-02-09T18:35:16.398Z,99465.66
2019-02-09T18:37:44.770Z,99460.73
2019-02-09T18:40:19.463Z,99471.69
2019-02-09T18:42:48.568Z,99463.35
2019-02-09T18:45:19.673Z,99464.95
2019-02-09T18:47:48.754Z,99474.88
2019-02-09T18:50:19.104Z,99471.36
2019-02-09T18:52:48.041Z,99468.05
2019-02-09T18:55:22.753Z,99487.28
2019-02-09T18:57:54.556Z,99471.09
2019-02-09T19:00:25.329Z,99478.23
2019-02-09T19:02:54.441Z,99485.27
2019-02-09T19:05:24.263Z,99479.31
2019-02-09T19:07:53.829Z,99487.88
2019-02-09T19:10:24.563Z,99490.00
2019-02-09T19:12:53.885Z,99498.92
2019-02-09T19:15:22.814Z,99491.60
2019-02-09T19:17:51.987Z,99489.72
2019-02-09T19:20:23.473Z,99493.28
2019-02-09T19:22:52.223Z,99480.61
2019-02-09T19:25:21.060Z,99497.56
2019-02-09T19:27:50.115Z,99496.69
2019-02-09T19:30:20.552Z,99493.11
2019-02-09T19:32:50.792Z,99490.78
2019-02-09T19:35:20.336Z,99505.77
2019-02-09T19:37:49.500Z,99502.45
2019-02-09T19:40:17.998Z,99507.58
2019-02-09T19:42:47.764Z,99501.65
2019-02-09T19:45:19.967Z,99504.78
2019-02-09T19:47:49.360Z,99506.39
2019-02-09T19:50:19.097Z,99515.16
2019-02-09T19:52:51.072Z,99513.91
2019-02-09T19:55:26.002Z,99510.23
2019-02-09T19:57:56.496Z,99512.30
2019-02-09T20:00:29.796Z,99525.58
2019-02-09T20:02:59.049Z,99518.08
2019-02-09T20:05:28.247Z,99529.00
2019-02-09T20:07:57.645Z,99523.95
2019-02-09T20:10:32.522Z,99519.63
2019-02-09T20:13:02.117Z,99531.25
2019-02-09T20:15:30.819Z,99529.00
2019-02-09T20:17:59.979Z,99539.05
2019-02-09T20:20:28.929Z,99527.38
2019-02-09T20:23:16.997Z,99534.53
2019-02-09T20:25:47.155Z,99529.00
2019-02-09T20:28:16.406Z,99539.25
2019-02-09T20:30:46.529Z,99543.31
2019-02-09T20:33:16.217Z,99544.92
2019-02-09T20:35:45.120Z,99548.11
2019-02-09T20:38:14.223Z,99545.38
2019-02-09T20:40:49.250Z,99531.53
2019-02-09T20:43:20.618Z,99548.27
2019-02-09T20:45:50.001Z,99542.98
2019-02-09T20:48:19.822Z,99553.33
2019-02-09T20:50:49.294Z,99538.45
2019-02-09T20:53:18.788Z,99541.63
2019-02-09T20:55:48.205Z,99544.69
2019-02-09T20:58:17.304Z,99543.31
2019-02-09T21:00:46.565Z,99540.19
2019-02-09T21:03:16.125Z,99539.80
2019-02-09T21:05:44.939Z,99549.84
2019-02-09T21:08:13.887Z,99551.13
2019-02-09T21:10:42.695Z,99554.38
2019-02-09T21:13:12.339Z,99544.77
2019-02-09T21:15:41.272Z,99551.87
2019-02-09T21:18:10.652Z,99553.38
2019-02-09T21:20:40.462Z,99554.16
2019-02-09T21:23:10.061Z,99553.01
2019-02-09T21:25:41.081Z,99557.30
2019-02-09T21:28:10.829Z,99553.52
2019-02-09T21:30:42.425Z,99558.36
2019-02-09T21:33:12.572Z,99546.95
2019-02-09T21:35:44.606Z,99543.81
2019-02-09T21:38:13.100Z,99539.36
2019-02-09T21:40:41.720Z,99548.03
2019-02-09T21:43:10.596Z,99538.13
2019-02-09T21:45:44.779Z,99545.11
2019-02-09T21:48:09.274Z,99539.01
2019-02-09T21:50:42.860Z,99544.34
2019-02-09T21:53:11.617Z,99536.37
2019-02-09T21:55:39.686Z,99539.55
2019-02-09T21:58:08.761Z,99530.08
2019-02-09T22:00:45.763Z,99535.17
2019-02-09T22:03:14.609Z,99540.03
2019-02-09T22:05:51.478Z,99536.86
2019-02-09T22:08:19.797Z,99524.72
2019-02-09T22:10:46.498Z,99508.56
2019-02-09T22:13:15.110Z,99523.94
2019-02-09T22:15:43.593Z,99522.14
2019-02-09T22:18:12.330Z,99515.64
2019-02-09T22:20:40.585Z,99514.70
2019-02-09T22:23:08.990Z,99527.34
2019-02-09T22:25:37.297Z,99529.77
2019-02-09T22:28:05.942Z,99537.70
2019-02-09T22:30:35.151Z,99537.09
2019-02-09T22:33:03.812Z,99534.27
2019-02-09T22:35:32.155Z,99541.83
2019-02-09T22:38:01.238Z,99549.73
2019-02-09T22:40:31.312Z,99553.45
2019-02-09T22:42:59.652Z,99550.40
2019-02-09T22:45:29.589Z,99546.56
2019-02-09T22:47:57.736Z,99557.83
2019-02-09T22:50:28.558Z,99546.64
2019-02-09T22:52:56.820Z,99551.13
2019-02-09T22:55:25.208Z,99551.11
2019-02-09T22:57:53.630Z,99538.26
2019-02-09T23:03:46.517Z,99541.98
2019-02-09T23:09:17.123Z,99544.98
2019-02-09T23:11:45.297Z,99537.33
2019-02-09T23:14:13.501Z,99542.19
2019-02-09T23:16:41.585Z,99536.85
2019-02-09T23:19:09.767Z,99528.98
2019-02-09T23:21:38.181Z,99532.43
2019-02-09T23:24:06.297Z,99531.83
2019-02-09T23:26:34.367Z,99525.58
2019-02-09T23:29:02.620Z,99525.58
2019-02-09T23:31:30.857Z,99524.66
2019-02-09T23:33:58.988Z,99517.95
2019-02-09T23:36:27.061Z,99512.20
2019-02-09T23:38:55.066Z,99509.66
2019-02-09T23:41:23.106Z,99506.28
2019-02-09T23:43:51.176Z,99503.90
2019-02-09T23:46:19.251Z,99503.59
2019-02-09T23:48:47.594Z,99503.39
2019-02-09T23:51:15.648Z,99497.28
2019-02-09T23:53:43.920Z,99498.97
2019-02-09T23:56:11.946Z,99498.41
2019-02-09T23:58:40.042Z,99487.85
